sensor_id;sensor_type;location;lat;lon;timestamp;temperature;humidity
6520;DHT22;3293;51.690;5.982;2022-11-20T00:03:00;-2.40;99.90
6520;DHT22;3293;51.690;5.982;2022-11-20T00:08:00;-2.30;99.90
6520;DHT22;3293;51.690;5.982;2022-11-20T00:13:00;-2.30;99.90
6520;DHT22;3293;51.690;5.982;2022-11-20T00:18:00;-2.30;99.90
6520;DHT22;3293;51.690;5.982;2022-11-20T00:23:00;-2.30;99.90
6520;DHT22;3293;51.690;5.982;2022-11-20T00:28:00;-2.30;99.90
6520;DHT22;3293;51.690;5.982;2022-11-20T00:33:00;-2.30;99.90
6520;DHT22;3293;51.690;5.982;2022-11-20T00:37:59;-2.40;99.90
6520;DHT22;3293;51.690;5.982;2022-11-20T00:42:59;-2.40;99.90
6520;DHT22;3293;51.690;5.982;2022-11-20T00:47:59;-2.40;99.90
6520;DHT22;3293;51.690;5.982;2022-11-20T00:52:59;-2.40;99.90
6520;DHT22;3293;51.690;5.982;2022-11-20T00:57:59;-2.50;99.90
6520;DHT22;3293;51.690;5.982;2022-11-20T01:02:59;-2.50;99.90
6520;DHT22;3293;51.690;5.982;2022-11-20T01:07:59;-2.60;99.90
6520;DHT22;3293;51.690;5.982;2022-11-20T01:12:59;-2.60;99.90
6520;DHT22;3293;51.690;5.982;2022-11-20T01:18:18;-2.60;99.90
6520;DHT22;3293;51.690;5.982;2022-11-20T01:23:17;-2.60;99.90
6520;DHT22;3293;51.690;5.982;2022-11-20T01:28:17;-2.60;99.90
6520;DHT22;3293;51.690;5.982;2022-11-20T01:33:17;-2.70;99.90
6520;DHT22;3293;51.690;5.982;2022-11-20T01:38:17;-2.70;99.90
6520;DHT22;3293;51.690;5.982;2022-11-20T01:43:19;-2.70;99.90
6520;DHT22;3293;51.690;5.982;2022-11-20T01:48:23;-2.70;99.90
6520;DHT22;3293;51.690;5.982;2022-11-20T01:53:28;-2.70;99.90
6520;DHT22;3293;51.690;5.982;2022-11-20T01:58:33;-2.80;99.90
6520;DHT22;3293;51.690;5.982;2022-11-20T02:03:34;-2.90;99.90
6520;DHT22;3293;51.690;5.982;2022-11-20T02:08:34;-2.90;99.90
6520;DHT22;3293;51.690;5.982;2022-11-20T02:13:35;-2.90;99.90
6520;DHT22;3293;51.690;5.982;2022-11-20T02:18:45;-2.80;99.90
6520;DHT22;3293;51.690;5.982;2022-11-20T02:29:04;-2.90;99.90
6520;DHT22;3293;51.690;5.982;2022-11-20T02:34:04;-2.90;99.90
6520;DHT22;3293;51.690;5.982;2022-11-20T02:39:05;-3.00;99.90
6520;DHT22;3293;51.690;5.982;2022-11-20T02:44:05;-3.10;99.90
6520;DHT22;3293;51.690;5.982;2022-11-20T02:49:05;-3.20;99.90
6520;DHT22;3293;51.690;5.982;2022-11-20T02:54:05;-3.20;99.90
6520;DHT22;3293;51.690;5.982;2022-11-20T02:59:06;-3.20;99.90
6520;DHT22;3293;51.690;5.982;2022-11-20T03:04:06;-3.20;99.90
6520;DHT22;3293;51.690;5.982;2022-11-20T03:09:05;-3.20;99.90
6520;DHT22;3293;51.690;5.982;2022-11-20T03:14:06;-3.20;99.90
6520;DHT22;3293;51.690;5.982;2022-11-20T03:19:06;-3.30;99.90
6520;DHT22;3293;51.690;5.982;2022-11-20T03:24:07;-3.40;99.90
6520;DHT22;3293;51.690;5.982;2022-11-20T03:29:07;-3.30;99.90
6520;DHT22;3293;51.690;5.982;2022-11-20T03:34:08;-3.40;99.90
6520;DHT22;3293;51.690;5.982;2022-11-20T03:39:09;-3.40;99.90
6520;DHT22;3293;51.690;5.982;2022-11-20T03:44:10;-3.50;99.90
6520;DHT22;3293;51.690;5.982;2022-11-20T03:49:11;-3.50;99.90
6520;DHT22;3293;51.690;5.982;2022-11-20T03:54:11;-3.60;99.90
6520;DHT22;3293;51.690;5.982;2022-11-20T03:59:11;-3.60;99.90
6520;DHT22;3293;51.690;5.982;2022-11-20T04:04:11;-3.70;99.90
6520;DHT22;3293;51.690;5.982;2022-11-20T04:09:11;-3.70;99.90
6520;DHT22;3293;51.690;5.982;2022-11-20T04:14:15;-3.70;99.90
6520;DHT22;3293;51.690;5.982;2022-11-20T04:19:16;-3.70;99.90
6520;DHT22;3293;51.690;5.982;2022-11-20T04:24:16;-3.70;99.90
6520;DHT22;3293;51.690;5.982;2022-11-20T04:29:16;-3.70;99.90
6520;DHT22;3293;51.690;5.982;2022-11-20T04:34:16;-3.60;99.90
6520;DHT22;3293;51.690;5.982;2022-11-20T04:39:16;-3.50;99.90
6520;DHT22;3293;51.690;5.982;2022-11-20T04:44:16;-3.60;99.90
6520;DHT22;3293;51.690;5.982;2022-11-20T04:49:16;-3.70;99.90
6520;DHT22;3293;51.690;5.982;2022-11-20T04:54:16;-3.80;99.90
6520;DHT22;3293;51.690;5.982;2022-11-20T04:59:16;-3.80;99.90
6520;DHT22;3293;51.690;5.982;2022-11-20T05:04:16;-3.80;99.90
6520;DHT22;3293;51.690;5.982;2022-11-20T05:09:16;-3.90;99.90
6520;DHT22;3293;51.690;5.982;2022-11-20T05:14:16;-3.90;99.90
6520;DHT22;3293;51.690;5.982;2022-11-20T05:19:16;-3.90;99.90
6520;DHT22;3293;51.690;5.982;2022-11-20T05:24:16;-4.00;99.90
6520;DHT22;3293;51.690;5.982;2022-11-20T05:29:16;-4.00;99.90
6520;DHT22;3293;51.690;5.982;2022-11-20T05:34:16;-4.10;99.90
6520;DHT22;3293;51.690;5.982;2022-11-20T05:39:16;-4.10;99.90
6520;DHT22;3293;51.690;5.982;2022-11-20T05:44:16;-4.10;99.90
6520;DHT22;3293;51.690;5.982;2022-11-20T05:49:16;-4.00;99.90
6520;DHT22;3293;51.690;5.982;2022-11-20T05:54:16;-4.10;99.90
6520;DHT22;3293;51.690;5.982;2022-11-20T05:59:16;-4.00;99.90
6520;DHT22;3293;51.690;5.982;2022-11-20T06:04:15;-4.00;99.90
6520;DHT22;3293;51.690;5.982;2022-11-20T06:09:15;-4.10;99.90
6520;DHT22;3293;51.690;5.982;2022-11-20T06:14:15;-4.10;99.90
6520;DHT22;3293;51.690;5.982;2022-11-20T06:19:16;-4.20;99.90
6520;DHT22;3293;51.690;5.982;2022-11-20T06:24:16;-4.20;99.90
6520;DHT22;3293;51.690;5.982;2022-11-20T06:29:16;-4.20;99.90
6520;DHT22;3293;51.690;5.982;2022-11-20T06:34:16;-4.20;99.90
6520;DHT22;3293;51.690;5.982;2022-11-20T06:39:16;-4.20;99.90
6520;DHT22;3293;51.690;5.982;2022-11-20T06:44:17;-4.30;99.90
6520;DHT22;3293;51.690;5.982;2022-11-20T06:49:17;-4.30;99.90
6520;DHT22;3293;51.690;5.982;2022-11-20T06:54:18;-4.30;99.90
6520;DHT22;3293;51.690;5.982;2022-11-20T06:59:18;-4.30;99.90
6520;DHT22;3293;51.690;5.982;2022-11-20T07:04:18;-4.30;99.90
6520;DHT22;3293;51.690;5.982;2022-11-20T07:09:18;-4.20;99.90
6520;DHT22;3293;51.690;5.982;2022-11-20T07:14:18;-4.10;99.90
6520;DHT22;3293;51.690;5.982;2022-11-20T07:19:18;-4.10;99.90
6520;DHT22;3293;51.690;5.982;2022-11-20T07:24:17;-3.90;99.90
6520;DHT22;3293;51.690;5.982;2022-11-20T07:29:17;-3.70;99.90
6520;DHT22;3293;51.690;5.982;2022-11-20T07:34:17;-3.60;99.90
6520;DHT22;3293;51.690;5.982;2022-11-20T07:39:17;-3.40;99.90
6520;DHT22;3293;51.690;5.982;2022-11-20T07:44:17;-3.10;99.90
6520;DHT22;3293;51.690;5.982;2022-11-20T07:49:17;-2.60;99.90
6520;DHT22;3293;51.690;5.982;2022-11-20T07:54:17;-2.20;99.90
6520;DHT22;3293;51.690;5.982;2022-11-20T07:59:17;-1.90;99.90
6520;DHT22;3293;51.690;5.982;2022-11-20T08:04:17;-1.60;99.90
6520;DHT22;3293;51.690;5.982;2022-11-20T08:09:16;-1.40;99.90
6520;DHT22;3293;51.690;5.982;2022-11-20T08:14:16;-1.30;99.90
6520;DHT22;3293;51.690;5.982;2022-11-20T08:19:17;-1.00;99.90
6520;DHT22;3293;51.690;5.982;2022-11-20T08:24:17;-0.90;99.90
6520;DHT22;3293;51.690;5.982;2022-11-20T08:29:18;-0.80;99.90
6520;DHT22;3293;51.690;5.982;2022-11-20T08:34:18;-0.70;99.90
6520;DHT22;3293;51.690;5.982;2022-11-20T08:39:17;-0.60;99.90
6520;DHT22;3293;51.690;5.982;2022-11-20T08:44:17;-0.50;99.90
6520;DHT22;3293;51.690;5.982;2022-11-20T08:49:17;-0.40;99.90
6520;DHT22;3293;51.690;5.982;2022-11-20T08:54:17;-0.30;99.90
6520;DHT22;3293;51.690;5.982;2022-11-20T08:59:19;0.00;99.90
6520;DHT22;3293;51.690;5.982;2022-11-20T09:04:19;0.30;99.90
6520;DHT22;3293;51.690;5.982;2022-11-20T09:09:19;0.60;99.90
6520;DHT22;3293;51.690;5.982;2022-11-20T09:14:19;0.60;99.90
6520;DHT22;3293;51.690;5.982;2022-11-20T09:19:21;0.70;99.90
6520;DHT22;3293;51.690;5.982;2022-11-20T09:24:20;0.80;99.90
6520;DHT22;3293;51.690;5.982;2022-11-20T09:29:20;0.90;99.90
6520;DHT22;3293;51.690;5.982;2022-11-20T09:34:20;0.90;99.90
6520;DHT22;3293;51.690;5.982;2022-11-20T09:39:20;1.10;99.90
6520;DHT22;3293;51.690;5.982;2022-11-20T09:55:12;1.70;99.90
6520;DHT22;3293;51.690;5.982;2022-11-20T10:00:15;1.70;99.90
6520;DHT22;3293;51.690;5.982;2022-11-20T10:05:19;1.80;99.90
6520;DHT22;3293;51.690;5.982;2022-11-20T10:10:37;1.90;99.90
6520;DHT22;3293;51.690;5.982;2022-11-20T10:21:44;2.10;99.90
6520;DHT22;3293;51.690;5.982;2022-11-20T10:27:20;2.30;99.90
6520;DHT22;3293;51.690;5.982;2022-11-20T10:32:28;2.30;99.90
6520;DHT22;3293;51.690;5.982;2022-11-20T10:37:31;2.60;99.90
6520;DHT22;3293;51.690;5.982;2022-11-20T10:42:38;2.80;99.90
6520;DHT22;3293;51.690;5.982;2022-11-20T10:47:42;3.10;99.90
6520;DHT22;3293;51.690;5.982;2022-11-20T10:58:21;3.20;99.90
6520;DHT22;3293;51.690;5.982;2022-11-20T11:03:29;3.10;99.90
6520;DHT22;3293;51.690;5.982;2022-11-20T11:08:36;3.10;99.90
6520;DHT22;3293;51.690;5.982;2022-11-20T11:13:37;3.00;99.90
6520;DHT22;3293;51.690;5.982;2022-11-20T11:18:37;3.00;99.90
6520;DHT22;3293;51.690;5.982;2022-11-20T11:23:41;2.90;99.90
6520;DHT22;3293;51.690;5.982;2022-11-20T11:28:41;2.80;99.90
6520;DHT22;3293;51.690;5.982;2022-11-20T11:33:40;2.80;99.90
6520;DHT22;3293;51.690;5.982;2022-11-20T11:38:41;2.80;99.90
6520;DHT22;3293;51.690;5.982;2022-11-20T11:43:52;2.90;99.90
6520;DHT22;3293;51.690;5.982;2022-11-20T11:49:17;3.00;99.90
6520;DHT22;3293;51.690;5.982;2022-11-20T11:54:22;3.20;99.90
6520;DHT22;3293;51.690;5.982;2022-11-20T11:59:44;3.30;99.90
6520;DHT22;3293;51.690;5.982;2022-11-20T12:04:55;3.50;99.90
6520;DHT22;3293;51.690;5.982;2022-11-20T12:09:57;3.60;99.90
6520;DHT22;3293;51.690;5.982;2022-11-20T12:14:58;3.60;99.90
6520;DHT22;3293;51.690;5.982;2022-11-20T12:19:58;3.60;99.90
6520;DHT22;3293;51.690;5.982;2022-11-20T12:30:17;3.60;99.90
6520;DHT22;3293;51.690;5.982;2022-11-20T12:47:54;3.60;99.90
6520;DHT22;3293;51.690;5.982;2022-11-20T12:52:56;3.60;99.90
6520;DHT22;3293;51.690;5.982;2022-11-20T13:03:38;3.60;99.90
6520;DHT22;3293;51.690;5.982;2022-11-20T13:08:41;3.60;99.90
6520;DHT22;3293;51.690;5.982;2022-11-20T13:14:04;3.50;99.90
6520;DHT22;3293;51.690;5.982;2022-11-20T13:19:12;3.60;99.90
6520;DHT22;3293;51.690;5.982;2022-11-20T13:29:19;3.50;99.90
6520;DHT22;3293;51.690;5.982;2022-11-20T13:34:26;3.50;99.90
6520;DHT22;3293;51.690;5.982;2022-11-20T13:39:29;3.60;99.90
6520;DHT22;3293;51.690;5.982;2022-11-20T13:44:37;3.70;99.90
6520;DHT22;3293;51.690;5.982;2022-11-20T13:49:39;3.70;99.90
6520;DHT22;3293;51.690;5.982;2022-11-20T13:55:31;3.80;99.90
6520;DHT22;3293;51.690;5.982;2022-11-20T14:00:19;3.90;99.90
6520;DHT22;3293;51.690;5.982;2022-11-20T14:05:23;3.90;99.90
6520;DHT22;3293;51.690;5.982;2022-11-20T14:10:28;3.90;99.90
6520;DHT22;3293;51.690;5.982;2022-11-20T14:15:34;3.80;99.90
6520;DHT22;3293;51.690;5.982;2022-11-20T14:20:34;3.90;99.90
6520;DHT22;3293;51.690;5.982;2022-11-20T14:25:34;3.80;99.90
6520;DHT22;3293;51.690;5.982;2022-11-20T14:35:43;3.90;99.90
6520;DHT22;3293;51.690;5.982;2022-11-20T14:40:44;3.90;99.90
6520;DHT22;3293;51.690;5.982;2022-11-20T14:50:56;3.80;99.90
6520;DHT22;3293;51.690;5.982;2022-11-20T14:55:59;3.90;99.90
6520;DHT22;3293;51.690;5.982;2022-11-20T15:01:01;3.90;99.90
6520;DHT22;3293;51.690;5.982;2022-11-20T15:06:02;3.90;99.90
6520;DHT22;3293;51.690;5.982;2022-11-20T15:11:03;3.90;99.90
6520;DHT22;3293;51.690;5.982;2022-11-20T15:16:19;3.90;99.90
6520;DHT22;3293;51.690;5.982;2022-11-20T15:21:20;3.90;99.90
6520;DHT22;3293;51.690;5.982;2022-11-20T15:26:27;3.90;99.90
6520;DHT22;3293;51.690;5.982;2022-11-20T15:31:27;3.90;99.90
6520;DHT22;3293;51.690;5.982;2022-11-20T15:36:27;3.90;99.90
6520;DHT22;3293;51.690;5.982;2022-11-20T15:41:27;3.90;99.90
6520;DHT22;3293;51.690;5.982;2022-11-20T15:46:29;3.90;99.90
6520;DHT22;3293;51.690;5.982;2022-11-20T15:51:38;3.90;99.90
6520;DHT22;3293;51.690;5.982;2022-11-20T15:56:38;3.90;99.90
6520;DHT22;3293;51.690;5.982;2022-11-20T16:01:38;4.00;99.90
6520;DHT22;3293;51.690;5.982;2022-11-20T16:06:39;4.00;99.90
6520;DHT22;3293;51.690;5.982;2022-11-20T16:11:40;4.00;99.90
6520;DHT22;3293;51.690;5.982;2022-11-20T16:16:39;4.10;99.90
6520;DHT22;3293;51.690;5.982;2022-11-20T16:21:41;4.10;99.90
6520;DHT22;3293;51.690;5.982;2022-11-20T16:26:41;4.10;99.90
6520;DHT22;3293;51.690;5.982;2022-11-20T16:31:41;4.10;99.90
6520;DHT22;3293;51.690;5.982;2022-11-20T16:36:42;4.20;99.90
6520;DHT22;3293;51.690;5.982;2022-11-20T16:41:43;4.20;99.90
6520;DHT22;3293;51.690;5.982;2022-11-20T16:46:43;4.20;99.90
6520;DHT22;3293;51.690;5.982;2022-11-20T16:51:43;4.20;99.90
6520;DHT22;3293;51.690;5.982;2022-11-20T16:56:43;4.30;99.90
6520;DHT22;3293;51.690;5.982;2022-11-20T17:01:46;4.20;99.90
6520;DHT22;3293;51.690;5.982;2022-11-20T17:06:46;4.30;99.90
6520;DHT22;3293;51.690;5.982;2022-11-20T17:11:47;4.30;99.90
6520;DHT22;3293;51.690;5.982;2022-11-20T17:16:47;4.30;99.90
6520;DHT22;3293;51.690;5.982;2022-11-20T17:21:47;4.30;99.90
6520;DHT22;3293;51.690;5.982;2022-11-20T17:26:47;4.40;99.90
6520;DHT22;3293;51.690;5.982;2022-11-20T17:31:47;4.40;99.90
6520;DHT22;3293;51.690;5.982;2022-11-20T17:36:47;4.40;99.90
6520;DHT22;3293;51.690;5.982;2022-11-20T17:41:47;4.40;99.90
6520;DHT22;3293;51.690;5.982;2022-11-20T17:47:07;4.50;99.90
6520;DHT22;3293;51.690;5.982;2022-11-20T17:52:07;4.40;99.90
6520;DHT22;3293;51.690;5.982;2022-11-20T17:57:07;4.40;99.90
6520;DHT22;3293;51.690;5.982;2022-11-20T18:02:26;4.50;99.90
6520;DHT22;3293;51.690;5.982;2022-11-20T18:07:26;4.60;99.90
6520;DHT22;3293;51.690;5.982;2022-11-20T18:12:26;4.60;99.90
6520;DHT22;3293;51.690;5.982;2022-11-20T18:17:26;4.60;99.90
6520;DHT22;3293;51.690;5.982;2022-11-20T18:22:26;4.70;99.90
6520;DHT22;3293;51.690;5.982;2022-11-20T18:27:25;4.70;99.90
6520;DHT22;3293;51.690;5.982;2022-11-20T18:32:25;4.80;99.90
6520;DHT22;3293;51.690;5.982;2022-11-20T18:37:25;4.70;99.90
6520;DHT22;3293;51.690;5.982;2022-11-20T18:42:26;4.80;99.90
6520;DHT22;3293;51.690;5.982;2022-11-20T18:47:45;4.80;99.90
6520;DHT22;3293;51.690;5.982;2022-11-20T18:52:45;4.90;99.90
6520;DHT22;3293;51.690;5.982;2022-11-20T18:57:46;4.80;99.90
6520;DHT22;3293;51.690;5.982;2022-11-20T19:02:46;4.80;99.90
6520;DHT22;3293;51.690;5.982;2022-11-20T19:07:47;4.80;99.90
6520;DHT22;3293;51.690;5.982;2022-11-20T19:12:47;4.80;99.90
6520;DHT22;3293;51.690;5.982;2022-11-20T19:17:46;4.80;99.90
6520;DHT22;3293;51.690;5.982;2022-11-20T19:22:48;4.70;99.90
6520;DHT22;3293;51.690;5.982;2022-11-20T19:27:48;4.60;99.90
6520;DHT22;3293;51.690;5.982;2022-11-20T19:32:48;4.70;99.90
6520;DHT22;3293;51.690;5.982;2022-11-20T19:37:48;4.70;99.90
6520;DHT22;3293;51.690;5.982;2022-11-20T19:42:49;4.60;99.90
6520;DHT22;3293;51.690;5.982;2022-11-20T19:47:49;4.60;99.90
6520;DHT22;3293;51.690;5.982;2022-11-20T19:52:49;4.50;99.90
6520;DHT22;3293;51.690;5.982;2022-11-20T19:57:49;4.30;99.90
6520;DHT22;3293;51.690;5.982;2022-11-20T20:02:49;4.30;99.90
6520;DHT22;3293;51.690;5.982;2022-11-20T20:07:49;4.20;99.90
6520;DHT22;3293;51.690;5.982;2022-11-20T20:12:49;4.20;99.90
6520;DHT22;3293;51.690;5.982;2022-11-20T20:17:52;4.10;99.90
6520;DHT22;3293;51.690;5.982;2022-11-20T20:22:52;4.20;99.90
6520;DHT22;3293;51.690;5.982;2022-11-20T20:27:52;4.10;99.90
6520;DHT22;3293;51.690;5.982;2022-11-20T20:32:52;4.10;99.90
6520;DHT22;3293;51.690;5.982;2022-11-20T20:37:51;4.00;99.90
6520;DHT22;3293;51.690;5.982;2022-11-20T20:42:51;4.10;99.90
6520;DHT22;3293;51.690;5.982;2022-11-20T20:47:52;4.00;99.90
6520;DHT22;3293;51.690;5.982;2022-11-20T20:52:51;4.00;99.90
6520;DHT22;3293;51.690;5.982;2022-11-20T20:57:51;3.90;99.90
6520;DHT22;3293;51.690;5.982;2022-11-20T21:02:52;3.90;99.90
6520;DHT22;3293;51.690;5.982;2022-11-20T21:07:52;3.90;99.90
6520;DHT22;3293;51.690;5.982;2022-11-20T21:13:10;3.90;99.90
6520;DHT22;3293;51.690;5.982;2022-11-20T21:18:11;4.00;99.90
6520;DHT22;3293;51.690;5.982;2022-11-20T21:23:12;3.90;99.90
6520;DHT22;3293;51.690;5.982;2022-11-20T21:28:12;3.90;99.90
6520;DHT22;3293;51.690;5.982;2022-11-20T21:33:12;3.90;99.90
6520;DHT22;3293;51.690;5.982;2022-11-20T21:38:12;3.90;99.90
6520;DHT22;3293;51.690;5.982;2022-11-20T21:43:12;3.80;99.90
6520;DHT22;3293;51.690;5.982;2022-11-20T21:48:11;3.80;99.90
6520;DHT22;3293;51.690;5.982;2022-11-20T21:53:12;3.80;99.90
6520;DHT22;3293;51.690;5.982;2022-11-20T21:58:12;3.80;99.90
6520;DHT22;3293;51.690;5.982;2022-11-20T22:03:12;3.70;99.90
6520;DHT22;3293;51.690;5.982;2022-11-20T22:08:12;3.70;99.90
6520;DHT22;3293;51.690;5.982;2022-11-20T22:13:12;3.70;99.90
6520;DHT22;3293;51.690;5.982;2022-11-20T22:18:30;3.70;99.90
6520;DHT22;3293;51.690;5.982;2022-11-20T22:23:30;3.70;99.90
6520;DHT22;3293;51.690;5.982;2022-11-20T22:28:30;3.70;99.90
6520;DHT22;3293;51.690;5.982;2022-11-20T22:33:31;3.60;99.90
6520;DHT22;3293;51.690;5.982;2022-11-20T22:38:31;3.60;99.90
6520;DHT22;3293;51.690;5.982;2022-11-20T22:43:31;3.70;99.90
6520;DHT22;3293;51.690;5.982;2022-11-20T22:48:33;3.60;99.90
6520;DHT22;3293;51.690;5.982;2022-11-20T22:53:43;3.60;99.90
6520;DHT22;3293;51.690;5.982;2022-11-20T22:58:44;3.60;99.90
6520;DHT22;3293;51.690;5.982;2022-11-20T23:03:45;3.60;99.90
6520;DHT22;3293;51.690;5.982;2022-11-20T23:08:45;3.60;99.90
6520;DHT22;3293;51.690;5.982;2022-11-20T23:13:45;3.60;99.90
6520;DHT22;3293;51.690;5.982;2022-11-20T23:18:45;3.70;99.90
6520;DHT22;3293;51.690;5.982;2022-11-20T23:23:48;3.70;99.90
6520;DHT22;3293;51.690;5.982;2022-11-20T23:28:48;3.70;99.90
6520;DHT22;3293;51.690;5.982;2022-11-20T23:33:48;3.60;99.90
6520;DHT22;3293;51.690;5.982;2022-11-20T23:38:48;3.60;99.90
6520;DHT22;3293;51.690;5.982;2022-11-20T23:43:48;3.60;99.90
6520;DHT22;3293;51.690;5.982;2022-11-20T23:48:48;3.60;99.90
6520;DHT22;3293;51.690;5.982;2022-11-20T23:53:48;3.70;99.90
6520;DHT22;3293;51.690;5.982;2022-11-20T23:58:47;3.70;99.90
